Rhoon, Netherlands
Current Conditions -  °F | °C
As of 7:25 PM on Wednesday 26 Nov 2014 (Local Time) from EHRD Reporting Station
Drizzle Drizzle  
Wind Chill: 37°   Ceiling: 900
Heat Index: 43°   Visibility: 4mi
Dew Point: 41°   Wind: 9mph
Humidity: 93%   Direction: 120°ESE
Pressure: 29.85"   Gusts: NA
Location:  51.86°N, 4.42°E
Report Text: EHRD 261825Z AUTO 12008KT 090V150 6000 -DZ BKN009 FEW015CB06/05 Q1011 TEMPO 4000 -DZRA
Loading
Personal Weather Stations






























Interactive Weather Map New forecast layout! Learn more

10-Day Weather Forecast

Advertisements
Track Severe Weather on mobile